<?xml version='1.0' encoding='UTF-8'?>
<gpx xmlns="http://www.topografix.com/GPX/1/1" creator="www.balnam.be" version="1.1" xmlns:xsi="http://www.w3.org/2001/XMLSchema-instance" xsi:schemaLocation="http://www.topografix.com/GPX/1/1 http://www.topografix.com/GPX/1/1/gpx.xsd">
<trk>
<name>lbltr3</name>
<cmt>v</cmt>
<desc>Trembleur Chemin n°3 Chemin de la Fabrique / Voie du Loup / Rue Andernack / Voie de Ris / Rue André Ruwet / Chienrue</desc>
<link href="https://chemins.be/trembleur/chemin/3"/><trkseg>
<trkpt lat="50.707389" lon="5.729274"><time>2026-05-07T18:25:41Z</time></trkpt>
<trkpt lat="50.705892" lon="5.731602"><time>2026-05-07T18:35:41Z</time></trkpt>
<trkpt lat="50.705131" lon="5.732340"><time>2026-05-07T18:45:41Z</time></trkpt>
<trkpt lat="50.704989" lon="5.731808"><time>2026-05-07T18:55:41Z</time></trkpt>
<trkpt lat="50.704585" lon="5.731885"><time>2026-05-07T19:05:41Z</time></trkpt>
<trkpt lat="50.703387" lon="5.730829"><time>2026-05-07T19:15:41Z</time></trkpt>
<trkpt lat="50.700627" lon="5.729121"><time>2026-05-07T19:25:41Z</time></trkpt>
<trkpt lat="50.699518" lon="5.728866"><time>2026-05-07T19:35:41Z</time></trkpt>
<trkpt lat="50.698573" lon="5.728649"><time>2026-05-07T19:45:41Z</time></trkpt>
<trkpt lat="50.697686" lon="5.727974"><time>2026-05-07T19:55:41Z</time></trkpt>
<trkpt lat="50.696421" lon="5.727010"><time>2026-05-07T20:05:41Z</time></trkpt>
<trkpt lat="50.696247" lon="5.726546"><time>2026-05-07T20:15:41Z</time></trkpt>
</trkseg></trk>
<trk>
<name>lbltr3</name>
<cmt>r</cmt>
<desc>Trembleur Chemin n°3 Chemin de la Fabrique / Voie du Loup / Rue Andernack / Voie de Ris / Rue André Ruwet / Chienrue</desc>
<link href="https://chemins.be/trembleur/chemin/3"/><trkseg>
<trkpt lat="50.696247" lon="5.726546"><time>2026-05-07T20:15:41Z</time></trkpt>
<trkpt lat="50.695860" lon="5.726555"><time>2026-05-07T20:25:41Z</time></trkpt>
<trkpt lat="50.694055" lon="5.725877"><time>2026-05-07T20:35:41Z</time></trkpt>
<trkpt lat="50.693203" lon="5.725769"><time>2026-05-07T20:45:41Z</time></trkpt>
</trkseg></trk>
<trk>
<name>lbltr3</name>
<cmt>q</cmt>
<desc>Trembleur Chemin n°3 Chemin de la Fabrique / Voie du Loup / Rue Andernack / Voie de Ris / Rue André Ruwet / Chienrue</desc>
<link href="https://chemins.be/trembleur/chemin/3"/><trkseg>
<trkpt lat="50.693203" lon="5.725769"><time>2026-05-07T20:45:41Z</time></trkpt>
<trkpt lat="50.692311" lon="5.726154"><time>2026-05-07T20:55:41Z</time></trkpt>
</trkseg></trk>
<trk>
<name>lbltr3</name>
<cmt>r</cmt>
<desc>Trembleur Chemin n°3 Chemin de la Fabrique / Voie du Loup / Rue Andernack / Voie de Ris / Rue André Ruwet / Chienrue</desc>
<link href="https://chemins.be/trembleur/chemin/3"/><trkseg>
<trkpt lat="50.692311" lon="5.726154"><time>2026-05-07T20:55:41Z</time></trkpt>
<trkpt lat="50.691740" lon="5.726096"><time>2026-05-07T21:05:41Z</time></trkpt>
</trkseg></trk>
<trk>
<name>lbltr3</name>
<cmt>s</cmt>
<desc>Trembleur Chemin n°3 Chemin de la Fabrique / Voie du Loup / Rue Andernack / Voie de Ris / Rue André Ruwet / Chienrue</desc>
<link href="https://chemins.be/trembleur/chemin/3"/><trkseg>
<trkpt lat="50.691740" lon="5.726096"><time>2026-05-07T21:05:41Z</time></trkpt>
<trkpt lat="50.691108" lon="5.726340"><time>2026-05-07T21:15:41Z</time></trkpt>
<trkpt lat="50.689025" lon="5.725619"><time>2026-05-07T21:25:41Z</time></trkpt>
<trkpt lat="50.687062" lon="5.724109"><time>2026-05-07T21:35:41Z</time></trkpt>
</trkseg></trk>
<trk>
<name>lbltr3</name>
<cmt>r</cmt>
<desc>Trembleur Chemin n°3 Chemin de la Fabrique / Voie du Loup / Rue Andernack / Voie de Ris / Rue André Ruwet / Chienrue</desc>
<link href="https://chemins.be/trembleur/chemin/3"/><trkseg>
<trkpt lat="50.687062" lon="5.724109"><time>2026-05-07T21:35:41Z</time></trkpt>
<trkpt lat="50.685222" lon="5.723582"><time>2026-05-07T21:45:41Z</time></trkpt>
<trkpt lat="50.681852" lon="5.722658"><time>2026-05-07T21:55:41Z</time></trkpt>
<trkpt lat="50.679807" lon="5.722109"><time>2026-05-07T22:05:41Z</time></trkpt>
</trkseg></trk>
<trk>
<name>lbltr3</name>
<cmt>s</cmt>
<desc>Trembleur Chemin n°3 Chemin de la Fabrique / Voie du Loup / Rue Andernack / Voie de Ris / Rue André Ruwet / Chienrue</desc>
<link href="https://chemins.be/trembleur/chemin/3"/><trkseg>
<trkpt lat="50.679807" lon="5.722109"><time>2026-05-07T22:05:41Z</time></trkpt>
<trkpt lat="50.673404" lon="5.720916"><time>2026-05-07T22:15:41Z</time></trkpt>
</trkseg></trk>
<trk>
<name>lbltr3</name>
<cmt>r</cmt>
<desc>Trembleur Chemin n°3 Chemin de la Fabrique / Voie du Loup / Rue Andernack / Voie de Ris / Rue André Ruwet / Chienrue</desc>
<link href="https://chemins.be/trembleur/chemin/3"/><trkseg>
<trkpt lat="50.673404" lon="5.720916"><time>2026-05-07T22:15:41Z</time></trkpt>
<trkpt lat="50.672194" lon="5.720347"><time>2026-05-07T22:25:41Z</time></trkpt>
<trkpt lat="50.671726" lon="5.719901"><time>2026-05-07T22:35:41Z</time></trkpt>
<trkpt lat="50.669327" lon="5.719171"><time>2026-05-07T22:45:41Z</time></trkpt>
<trkpt lat="50.668332" lon="5.717954"><time>2026-05-07T22:55:41Z</time></trkpt>
<trkpt lat="50.667988" lon="5.717724"><time>2026-05-07T23:05:41Z</time></trkpt>
</trkseg></trk>
<trk>
<name>lbltr3</name>
<cmt>v</cmt>
<desc>Trembleur Chemin n°3 Chemin de la Fabrique / Voie du Loup / Rue Andernack / Voie de Ris / Rue André Ruwet / Chienrue</desc>
<link href="https://chemins.be/trembleur/chemin/3"/><trkseg>
<trkpt lat="50.667988" lon="5.717724"><time>2026-05-07T23:05:41Z</time></trkpt>
<trkpt lat="50.667865" lon="5.717500"><time>2026-05-07T23:15:41Z</time></trkpt>
<trkpt lat="50.667589" lon="5.717238"><time>2026-05-07T23:25:41Z</time></trkpt>
<trkpt lat="50.667376" lon="5.716963"><time>2026-05-07T23:35:41Z</time></trkpt>
<trkpt lat="50.667147" lon="5.716588"><time>2026-05-07T23:45:41Z</time></trkpt>
<trkpt lat="50.666934" lon="5.716356"><time>2026-05-07T23:55:41Z</time></trkpt>
<trkpt lat="50.666622" lon="5.716092"><time>2026-05-08T00:05:41Z</time></trkpt>
<trkpt lat="50.666515" lon="5.716019"><time>2026-05-08T00:15:41Z</time></trkpt>
<trkpt lat="50.666090" lon="5.716204"><time>2026-05-08T00:25:41Z</time></trkpt>
<trkpt lat="50.666002" lon="5.716060"><time>2026-05-08T00:35:41Z</time></trkpt>
<trkpt lat="50.666016" lon="5.715636"><time>2026-05-08T00:45:41Z</time></trkpt>
<trkpt lat="50.665956" lon="5.715408"><time>2026-05-08T00:55:41Z</time></trkpt>
<trkpt lat="50.665850" lon="5.715236"><time>2026-05-08T01:05:41Z</time></trkpt>
<trkpt lat="50.665302" lon="5.715149"><time>2026-05-08T01:15:41Z</time></trkpt>
<trkpt lat="50.665224" lon="5.714935"><time>2026-05-08T01:25:41Z</time></trkpt>
</trkseg>
</trk>
</gpx>